Wesson, Mississippi
Current Conditions -  °F | °C
As of 12:53 AM on Sunday 21 Dec 2014 (Local Time) from KMCB Reporting Station
Clear Clear  
Wind Chill: 44°   Ceiling: Unl
Heat Index: 44°   Visibility: 9mi
Dew Point: 41°   Wind: 3mph
Humidity: 89%   Direction: 10°N
Pressure: 30.17"   Gusts: NA
Location:  31.7°N, 90.4°W
Report Text: KMCB 210653Z AUTO 01003KT 9SM CLR 07/05 A3017 RMK AO2 SLP215 T00670050
Loading
Personal Weather Stations






























Interactive Weather Map New forecast layout! Learn more

10-Day Weather Forecast

Advertisements
Track Severe Weather on mobile